Time;durP1;ratioP1;P1;durP2;ratioP2;P2;SDS_P1;SDS_P2;PMS_P1;PMS_P2;Temp;Humidity;BMP_temperature;BMP_pressure;BME280_temperature;BME280_humidity;BME280_pressure;Samples;Min_cycle;Max_cycle;Signal;HPM_P1;HPM_P2
2021/10/04 00:01:04;;;;;;;4.75;1.00;;;12.30;99.90;;;;;;5054390;28;20028;-76
2021/10/04 00:03:29;;;;;;;5.70;1.88;;;12.30;99.90;;;;;;5053804;28;20075;-75
2021/10/04 00:05:55;;;;;;;2.58;1.00;;;12.30;99.90;;;;;;5054077;28;20025;-75
2021/10/04 00:08:23;;;;;;;2.75;1.10;;;12.30;99.90;;;;;;5054499;28;20021;-75
2021/10/04 00:10:49;;;;;;;3.75;1.10;;;12.20;99.90;;;;;;5052382;28;20021;-75
2021/10/04 00:13:15;;;;;;;2.78;0.70;;;12.20;99.90;;;;;;5041624;28;20108;-75
2021/10/04 00:15:41;;;;;;;6.88;1.10;;;12.20;99.90;;;;;;5053887;28;20148;-75
2021/10/04 00:18:07;;;;;;;3.90;1.17;;;12.20;99.90;;;;;;5053903;28;21250;-75
2021/10/04 00:20:33;;;;;;;4.65;1.05;;;12.30;99.90;;;;;;5053702;28;20048;-77
2021/10/04 00:22:59;;;;;;;1.08;0.82;;;12.30;99.90;;;;;;5053319;28;20147;-76
2021/10/04 00:25:25;;;;;;;3.17;0.90;;;12.30;99.90;;;;;;5047865;28;20028;-74
2021/10/04 00:27:51;;;;;;;8.10;1.08;;;12.30;99.90;;;;;;5034537;28;20056;-75
2021/10/04 00:30:18;;;;;;;5.90;1.90;;;12.20;99.90;;;;;;5036509;28;20425;-74
2021/10/04 00:32:46;;;;;;;4.72;1.55;;;12.30;99.90;;;;;;5046146;28;20112;-75
2021/10/04 00:35:13;;;;;;;2.70;1.13;;;12.30;99.90;;;;;;5043053;28;20121;-75
2021/10/04 00:37:39;;;;;;;2.70;1.00;;;12.20;99.90;;;;;;5051260;28;20017;-74
2021/10/04 00:40:08;;;;;;;1.45;0.90;;;12.20;99.90;;;;;;5052978;28;20025;-75
2021/10/04 00:42:33;;;;;;;2.35;1.17;;;12.20;99.90;;;;;;5051186;28;20025;-74
2021/10/04 00:44:59;;;;;;;2.53;0.70;;;12.20;99.90;;;;;;5040898;28;20035;-74
2021/10/04 00:47:25;;;;;;;2.80;1.10;;;12.20;99.90;;;;;;5053895;28;20053;-74
2021/10/04 00:49:51;;;;;;;2.42;1.20;;;12.20;99.90;;;;;;5053666;28;20041;-74
2021/10/04 00:52:16;;;;;;;1.92;0.80;;;12.20;99.90;;;;;;5053376;28;20461;-74
2021/10/04 00:54:42;;;;;;;3.53;1.17;;;12.10;99.90;;;;;;5052837;28;20112;-74
2021/10/04 00:57:08;;;;;;;3.88;1.00;;;12.10;99.90;;;;;;5052405;28;20017;-74
2021/10/04 00:59:34;;;;;;;3.80;1.60;;;12.20;99.90;;;;;;5051411;28;20028;-74
2021/10/04 01:02:00;;;;;;;2.97;1.10;;;12.10;99.90;;;;;;5040864;28;20350;-74
2021/10/04 01:04:26;;;;;;;1.85;1.40;;;12.10;99.90;;;;;;5053393;28;20032;-74
2021/10/04 01:06:56;;;;;;;3.50;1.08;;;12.10;99.90;;;;;;5052241;28;20017;-74
2021/10/04 01:09:23;;;;;;;2.63;1.40;;;12.10;99.90;;;;;;5053398;28;20377;-74
2021/10/04 01:11:49;;;;;;;1.58;1.05;;;12.10;99.90;;;;;;5052443;28;20021;-75
2021/10/04 01:14:15;;;;;;;2.33;0.80;;;12.10;99.90;;;;;;5052958;28;20064;-74
2021/10/04 01:16:41;;;;;;;3.58;0.95;;;12.00;99.90;;;;;;5053120;28;20484;-75
2021/10/04 01:19:07;;;;;;;9.45;1.35;;;12.00;99.90;;;;;;5052671;28;20045;-74
2021/10/04 01:21:32;;;;;;;3.60;1.05;;;12.10;99.90;;;;;;5053036;28;20437;-76
2021/10/04 01:23:58;;;;;;;4.00;1.25;;;12.10;99.90;;;;;;5053021;28;20509;-76
2021/10/04 01:26:24;;;;;;;3.28;1.00;;;12.00;99.90;;;;;;5052672;28;20573;-75
2021/10/04 01:28:50;;;;;;;6.00;1.40;;;12.00;99.90;;;;;;5053059;28;20063;-75
2021/10/04 01:31:22;;;;;;;4.57;1.50;;;12.10;99.90;;;;;;5053670;28;20468;-73
2021/10/04 01:33:48;;;;;;;3.67;0.98;;;12.10;99.90;;;;;;5049973;28;20020;-74
2021/10/04 01:36:14;;;;;;;2.33;0.80;;;12.10;99.90;;;;;;5040813;28;20029;-74
2021/10/04 01:38:39;;;;;;;5.03;1.20;;;12.20;99.90;;;;;;5052768;28;20032;-74
2021/10/04 01:41:05;;;;;;;2.80;0.90;;;12.10;99.90;;;;;;5052033;28;20086;-74
2021/10/04 01:43:31;;;;;;;2.45;1.20;;;12.10;99.90;;;;;;5054222;28;20088;-74
2021/10/04 01:45:56;;;;;;;8.27;1.48;;;12.10;99.90;;;;;;5048266;28;20026;-74
2021/10/04 01:48:22;;;;;;;1.98;1.00;;;12.20;99.90;;;;;;5042676;28;20488;-74
2021/10/04 01:50:47;;;;;;;6.97;1.35;;;12.10;99.90;;;;;;5051714;28;20032;-74
2021/10/04 01:53:13;;;;;;;2.80;1.08;;;12.10;99.90;;;;;;5052019;28;20031;-75
2021/10/04 01:55:38;;;;;;;3.72;1.20;;;12.10;99.90;;;;;;5051751;28;20043;-75
2021/10/04 01:58:05;;;;;;;5.65;1.20;;;12.10;99.90;;;;;;5051816;28;20013;-74
2021/10/04 02:00:30;;;;;;;2.05;1.10;;;12.00;99.90;;;;;;5052596;28;20086;-74
2021/10/04 02:02:57;;;;;;;5.40;1.35;;;12.00;99.90;;;;;;5050581;28;20461;-75
2021/10/04 02:05:23;;;;;;;6.32;0.95;;;12.00;99.90;;;;;;5052275;28;20033;-75
2021/10/04 02:07:50;;;;;;;6.97;0.93;;;12.00;99.90;;;;;;5050649;28;20049;-74
2021/10/04 02:10:19;;;;;;;3.53;1.00;;;12.00;99.90;;;;;;5051593;28;20029;-75
2021/10/04 02:12:45;;;;;;;4.18;0.90;;;12.00;99.90;;;;;;5052062;28;20028;-75
2021/10/04 02:15:11;;;;;;;4.13;1.33;;;12.00;99.90;;;;;;5050900;28;20044;-75
2021/10/04 02:17:37;;;;;;;2.90;1.00;;;11.90;99.90;;;;;;5052136;28;20024;-75
2021/10/04 02:20:11;;;;;;;2.58;0.90;;;11.90;99.90;;;;;;5051660;28;20073;-75
2021/10/04 02:22:36;;;;;;;5.88;1.08;;;11.90;99.90;;;;;;5051577;28;20489;-75
2021/10/04 02:25:03;;;;;;;7.30;1.23;;;11.90;99.90;;;;;;5051428;28;20033;-74
2021/10/04 02:27:28;;;;;;;2.95;1.23;;;11.90;99.90;;;;;;5051990;28;20028;-76
2021/10/04 02:29:54;;;;;;;0.85;0.80;;;11.90;99.90;;;;;;5051228;28;20025;-74
2021/10/04 02:32:19;;;;;;;2.88;0.98;;;11.90;99.90;;;;;;5052083;28;20033;-74
2021/10/04 02:34:45;;;;;;;3.22;1.02;;;11.80;99.90;;;;;;5041369;28;20530;-74
2021/10/04 02:37:11;;;;;;;6.13;2.33;;;11.90;99.90;;;;;;5047531;28;20110;-75
2021/10/04 02:39:36;;;;;;;5.70;1.80;;;11.80;99.90;;;;;;5051884;28;20132;-75
2021/10/04 02:42:02;;;;;;;0.88;0.80;;;11.80;99.90;;;;;;5051646;28;20415;-75
2021/10/04 02:44:28;;;;;;;6.80;1.23;;;11.80;99.90;;;;;;5050852;28;20055;-76
2021/10/04 02:46:53;;;;;;;1.73;0.88;;;11.80;99.90;;;;;;5051615;28;20029;-76
2021/10/04 02:49:19;;;;;;;5.22;1.30;;;11.70;99.90;;;;;;5052470;28;20017;-74
2021/10/04 02:51:45;;;;;;;5.60;1.17;;;11.70;99.90;;;;;;5052132;28;20025;-75
2021/10/04 02:54:10;;;;;;;5.18;1.25;;;11.70;99.90;;;;;;5052006;28;20064;-74
2021/10/04 02:56:36;;;;;;;5.60;1.23;;;11.70;99.90;;;;;;5052130;28;20431;-75
2021/10/04 02:59:02;;;;;;;3.72;1.13;;;11.70;99.90;;;;;;5050842;28;20032;-75
2021/10/04 03:01:27;;;;;;;1.55;1.13;;;11.60;99.90;;;;;;5053673;28;20068;-74
2021/10/04 03:03:53;;;;;;;3.17;1.02;;;11.60;99.90;;;;;;5051721;28;20055;-75
2021/10/04 03:06:19;;;;;;;3.08;1.25;;;11.60;99.90;;;;;;5051190;28;20377;-75
2021/10/04 03:08:44;;;;;;;6.22;1.25;;;11.50;99.90;;;;;;5051252;28;20203;-74
2021/10/04 03:11:10;;;;;;;7.03;1.70;;;11.50;99.90;;;;;;5051637;28;20025;-74
2021/10/04 03:13:35;;;;;;;2.97;1.38;;;11.50;99.90;;;;;;5050885;28;20032;-74
2021/10/04 03:16:01;;;;;;;5.10;1.33;;;11.40;99.90;;;;;;5051272;28;20064;-74
2021/10/04 03:18:26;;;;;;;2.65;1.33;;;11.40;99.90;;;;;;5050986;28;20059;-74
2021/10/04 03:20:52;;;;;;;2.75;1.25;;;11.40;99.90;;;;;;5054364;28;20037;-74
2021/10/04 03:23:18;;;;;;;3.75;1.52;;;11.40;99.90;;;;;;5055175;28;20457;-74
2021/10/04 03:25:43;;;;;;;2.85;1.40;;;11.40;99.90;;;;;;5054971;28;20425;-75
2021/10/04 03:28:09;;;;;;;2.28;1.33;;;11.40;99.90;;;;;;5054706;28;20056;-74
2021/10/04 03:30:35;;;;;;;3.13;1.35;;;11.40;99.90;;;;;;5055512;28;20025;-74
2021/10/04 03:33:02;;;;;;;1.75;1.10;;;11.40;99.90;;;;;;5054380;28;20837;-74
2021/10/04 03:35:28;;;;;;;3.15;1.40;;;11.40;99.90;;;;;;5040521;28;20033;-74
2021/10/04 03:37:54;;;;;;;4.30;1.30;;;11.40;99.90;;;;;;5054791;28;20040;-74
2021/10/04 03:40:20;;;;;;;5.40;1.65;;;11.40;99.90;;;;;;5054570;28;20025;-74
2021/10/04 03:42:46;;;;;;;7.05;1.48;;;11.40;99.90;;;;;;5054754;28;20421;-74
2021/10/04 03:45:13;;;;;;;6.93;1.67;;;11.40;99.90;;;;;;5055039;28;20028;-74
2021/10/04 03:47:45;;;;;;;4.25;1.02;;;11.40;99.90;;;;;;5054268;28;20049;-74
2021/10/04 03:50:13;;;;;;;5.45;1.55;;;11.40;99.90;;;;;;5054597;28;20025;-75
2021/10/04 03:52:39;;;;;;;3.13;1.23;;;11.40;99.90;;;;;;5054813;28;20052;-74
2021/10/04 03:55:06;;;;;;;5.18;1.38;;;11.30;99.90;;;;;;5054119;28;20036;-75
2021/10/04 03:57:32;;;;;;;5.90;1.20;;;11.30;99.90;;;;;;5054465;28;20091;-73
2021/10/04 03:59:58;;;;;;;7.00;1.58;;;11.30;99.90;;;;;;5054578;28;20412;-74
2021/10/04 04:02:23;;;;;;;2.80;1.17;;;11.20;99.90;;;;;;5053922;28;20109;-74
2021/10/04 04:04:49;;;;;;;5.97;1.40;;;11.20;99.90;;;;;;5046649;28;20079;-73
2021/10/04 04:07:14;;;;;;;9.07;1.67;;;11.20;99.90;;;;;;5045394;28;20029;-74
2021/10/04 04:09:40;;;;;;;5.80;1.60;;;11.20;99.90;;;;;;5051954;28;20031;-74
2021/10/04 04:12:06;;;;;;;7.20;1.58;;;11.10;99.90;;;;;;5047779;28;20036;-74
2021/10/04 04:14:32;;;;;;;2.22;1.23;;;11.10;99.90;;;;;;5038209;28;20105;-74
2021/10/04 04:16:57;;;;;;;4.28;1.08;;;11.00;99.90;;;;;;5051456;28;20021;-74
2021/10/04 04:19:23;;;;;;;3.83;1.55;;;11.00;99.90;;;;;;5052311;28;20056;-74
2021/10/04 04:21:51;;;;;;;3.63;1.33;;;11.00;99.90;;;;;;5051817;28;20029;-75
2021/10/04 04:24:17;;;;;;;16.17;2.38;;;11.00;99.90;;;;;;5052839;28;20049;-74
2021/10/04 04:26:43;;;;;;;8.07;1.63;;;11.00;99.90;;;;;;5053895;28;20571;-75
2021/10/04 04:29:09;;;;;;;2.17;1.40;;;10.90;99.90;;;;;;5053510;28;20492;-74
2021/10/04 04:31:35;;;;;;;4.50;1.60;;;10.90;99.90;;;;;;5053318;28;20033;-74
2021/10/04 04:34:00;;;;;;;3.85;1.70;;;10.90;99.90;;;;;;5049628;28;20025;-75
2021/10/04 04:36:26;;;;;;;3.65;1.50;;;10.80;99.90;;;;;;5043443;28;20026;-75
2021/10/04 04:38:52;;;;;;;5.10;1.52;;;10.80;99.90;;;;;;5053302;28;20032;-75
2021/10/04 04:41:18;;;;;;;6.15;1.70;;;10.70;99.90;;;;;;5055487;28;20383;-75
2021/10/04 04:43:44;;;;;;;5.63;2.03;;;10.60;99.90;;;;;;5053445;28;20049;-75
2021/10/04 04:46:10;;;;;;;5.57;1.73;;;10.60;99.90;;;;;;5053693;28;20029;-74
2021/10/04 04:48:36;;;;;;;2.00;1.80;;;10.50;99.90;;;;;;5053780;28;20021;-75
2021/10/04 04:51:01;;;;;;;4.72;1.75;;;10.50;99.90;;;;;;5052220;28;20052;-73
2021/10/04 04:53:27;;;;;;;3.60;2.00;;;10.40;99.90;;;;;;5053134;28;20052;-74
2021/10/04 04:55:52;;;;;;;5.47;1.80;;;10.40;99.90;;;;;;5053248;28;20779;-75
2021/10/04 04:58:18;;;;;;;2.63;1.48;;;10.40;99.90;;;;;;5055264;28;20055;-74
2021/10/04 05:00:43;;;;;;;8.32;2.60;;;10.30;99.90;;;;;;5053116;28;20036;-74
2021/10/04 05:03:09;;;;;;;4.50;1.83;;;10.30;99.90;;;;;;5053277;28;20385;-74
2021/10/04 05:05:35;;;;;;;4.65;2.10;;;10.30;99.90;;;;;;5052823;28;20094;-75
2021/10/04 05:08:00;;;;;;;2.17;1.98;;;10.20;99.90;;;;;;5053132;28;20021;-74
2021/10/04 05:10:26;;;;;;;8.23;2.95;;;10.20;99.90;;;;;;5053566;28;20021;-74
2021/10/04 05:12:51;;;;;;;6.88;2.10;;;10.20;99.90;;;;;;5052224;28;20017;-74
2021/10/04 05:15:17;;;;;;;5.30;2.28;;;10.20;99.90;;;;;;5053160;28;20060;-75
2021/10/04 05:17:43;;;;;;;6.80;2.33;;;10.10;99.90;;;;;;5052995;28;20029;-74
2021/10/04 05:20:09;;;;;;;4.53;3.00;;;10.10;99.90;;;;;;5052258;28;20052;-75
2021/10/04 05:22:35;;;;;;;4.30;2.20;;;10.10;99.90;;;;;;5053505;28;20029;-75
2021/10/04 05:25:08;;;;;;;3.28;2.38;;;10.10;99.90;;;;;;5052497;28;20530;-75
2021/10/04 05:27:34;;;;;;;6.28;2.40;;;10.10;99.90;;;;;;5053004;28;20021;-75
2021/10/04 05:30:00;;;;;;;3.95;2.35;;;10.10;99.90;;;;;;5052608;28;20111;-75
2021/10/04 05:32:25;;;;;;;5.35;2.33;;;10.10;99.90;;;;;;5052332;28;20342;-75
2021/10/04 05:34:51;;;;;;;5.18;1.98;;;10.10;99.90;;;;;;5041447;28;20038;-74
2021/10/04 05:37:17;;;;;;;6.05;2.55;;;10.10;99.90;;;;;;5049749;28;20067;-75
2021/10/04 05:39:42;;;;;;;4.35;2.58;;;10.10;99.90;;;;;;5051953;28;20039;-75
2021/10/04 05:42:09;;;;;;;4.10;2.05;;;10.10;99.90;;;;;;5052023;28;20021;-74
2021/10/04 05:44:34;;;;;;;3.00;2.30;;;10.10;99.90;;;;;;5052692;28;20021;-75
2021/10/04 05:47:00;;;;;;;7.55;2.75;;;10.00;99.90;;;;;;5038534;28;20029;-75
2021/10/04 05:49:28;;;;;;;5.88;2.25;;;10.10;99.90;;;;;;5032328;28;20079;-75
2021/10/04 05:51:53;;;;;;;5.13;2.00;;;10.10;99.90;;;;;;5032076;28;20104;-75
2021/10/04 05:54:21;;;;;;;4.03;2.38;;;10.10;99.90;;;;;;5031137;28;20136;-74
2021/10/04 05:56:47;;;;;;;4.28;2.22;;;10.10;99.90;;;;;;5030919;28;20022;-74
2021/10/04 05:59:13;;;;;;;7.32;2.33;;;10.10;99.90;;;;;;5034207;28;20421;-75
2021/10/04 06:01:38;;;;;;;6.35;2.38;;;10.10;99.90;;;;;;5033578;28;20020;-75
2021/10/04 06:04:04;;;;;;;5.55;2.40;;;10.10;99.90;;;;;;5044571;28;20112;-74
2021/10/04 06:06:32;;;;;;;10.88;2.50;;;10.10;99.90;;;;;;5049020;28;20123;-74
2021/10/04 06:08:58;;;;;;;6.20;2.67;;;10.10;99.90;;;;;;5042081;28;20021;-73
2021/10/04 06:11:23;;;;;;;7.63;2.30;;;10.10;99.90;;;;;;5041842;28;20018;-74
2021/10/04 06:13:50;;;;;;;5.63;2.78;;;10.10;99.90;;;;;;5048583;28;20056;-73
2021/10/04 06:16:16;;;;;;;4.88;2.58;;;10.10;99.90;;;;;;5047053;28;20037;-74
2021/10/04 06:18:41;;;;;;;5.82;2.47;;;10.10;99.90;;;;;;5043337;28;20029;-76
2021/10/04 06:21:07;;;;;;;6.80;2.50;;;10.10;99.90;;;;;;5042105;28;20026;-75
2021/10/04 06:23:33;;;;;;;3.90;2.25;;;10.20;99.90;;;;;;5048115;28;20090;-75
2021/10/04 06:25:58;;;;;;;3.38;1.95;;;10.10;99.90;;;;;;5049197;28;20116;-74
2021/10/04 06:28:24;;;;;;;4.93;2.30;;;10.10;99.90;;;;;;5047375;28;20048;-73
2021/10/04 06:30:49;;;;;;;5.80;2.80;;;10.10;99.90;;;;;;5037194;28;20033;-76
2021/10/04 06:33:15;;;;;;;6.22;2.17;;;10.20;99.90;;;;;;5043711;28;20104;-76
2021/10/04 06:35:41;;;;;;;7.38;2.67;;;10.20;99.90;;;;;;5046541;28;20033;-76
2021/10/04 06:38:06;;;;;;;5.03;2.55;;;10.10;99.90;;;;;;5042848;28;20017;-75
2021/10/04 06:40:32;;;;;;;3.28;2.17;;;10.20;99.90;;;;;;5036261;28;20068;-75
2021/10/04 06:42:58;;;;;;;6.13;2.05;;;10.20;99.90;;;;;;5031087;28;20022;-74
2021/10/04 06:45:24;;;;;;;8.73;2.17;;;10.20;99.90;;;;;;5031773;28;20104;-74
2021/10/04 06:47:49;;;;;;;5.15;2.00;;;10.20;99.90;;;;;;5031831;28;20478;-74
2021/10/04 06:50:15;;;;;;;5.38;2.47;;;10.20;99.90;;;;;;5031524;28;20027;-76
2021/10/04 06:52:41;;;;;;;4.47;1.95;;;10.20;99.90;;;;;;5047834;28;20102;-75
2021/10/04 06:55:09;;;;;;;3.53;2.20;;;10.20;99.90;;;;;;5055780;28;20029;-72
2021/10/04 06:57:37;;;;;;;7.18;1.75;;;10.30;99.90;;;;;;5054405;28;20111;-75
2021/10/04 07:00:06;;;;;;;3.90;1.60;;;10.30;99.90;;;;;;5042219;28;20033;-75
2021/10/04 07:02:31;;;;;;;10.00;1.90;;;10.30;99.90;;;;;;5042720;28;20088;-75
2021/10/04 07:04:57;;;;;;;4.13;1.92;;;10.40;99.90;;;;;;5034856;28;20017;-74
2021/10/04 07:07:22;;;;;;;4.35;1.52;;;10.50;99.90;;;;;;5035863;28;20358;-75
2021/10/04 07:09:48;;;;;;;6.03;1.65;;;10.60;99.90;;;;;;5035848;28;20432;-76
2021/10/04 07:12:13;;;;;;;6.47;2.03;;;10.70;99.90;;;;;;5052341;28;20542;-75
2021/10/04 07:14:39;;;;;;;4.25;1.60;;;10.70;99.90;;;;;;5040254;28;20037;-72
2021/10/04 07:17:05;;;;;;;3.10;2.00;;;10.80;99.90;;;;;;5035084;28;20036;-74
2021/10/04 07:19:30;;;;;;;3.00;1.70;;;10.90;99.90;;;;;;5034875;28;20132;-75
2021/10/04 07:21:56;;;;;;;5.40;1.40;;;11.00;99.90;;;;;;5035233;28;20465;-75
2021/10/04 07:24:22;;;;;;;5.28;1.95;;;11.00;99.90;;;;;;5035328;28;20025;-75
2021/10/04 07:26:49;;;;;;;6.80;2.70;;;11.10;99.90;;;;;;5039090;28;20033;-77
2021/10/04 07:29:15;;;;;;;8.05;2.55;;;11.20;99.90;;;;;;5035068;28;20071;-75
2021/10/04 07:31:40;;;;;;;5.22;2.30;;;11.20;99.90;;;;;;5034031;28;20482;-75
2021/10/04 07:34:07;;;;;;;3.95;2.55;;;11.20;99.90;;;;;;5034435;28;20052;-75
2021/10/04 07:36:34;;;;;;;8.80;3.30;;;11.30;99.90;;;;;;5046280;28;20068;-76
2021/10/04 07:39:00;;;;;;;7.05;2.13;;;11.40;99.90;;;;;;5053515;28;20044;-74
2021/10/04 07:41:25;;;;;;;6.00;2.15;;;11.40;99.90;;;;;;5052904;28;20370;-76
2021/10/04 07:43:51;;;;;;;8.05;2.22;;;11.50;99.90;;;;;;5052927;28;20025;-76
2021/10/04 07:46:17;;;;;;;4.93;1.90;;;11.50;99.90;;;;;;5053809;28;20067;-77
2021/10/04 07:48:42;;;;;;;5.68;1.85;;;11.50;99.90;;;;;;5054017;28;20021;-75
2021/10/04 07:51:11;;;;;;;5.80;2.67;;;11.60;99.90;;;;;;5053211;28;20433;-74
2021/10/04 07:53:38;;;;;;;5.38;1.95;;;11.70;99.90;;;;;;5053105;28;20538;-76
2021/10/04 07:56:04;;;;;;;12.32;1.95;;;11.80;99.90;;;;;;5055564;28;20036;-75
2021/10/04 07:58:29;;;;;;;5.65;1.63;;;11.80;99.90;;;;;;5054779;28;20464;-75
2021/10/04 08:00:55;;;;;;;5.57;2.35;;;11.90;99.90;;;;;;5053663;28;20103;-75
2021/10/04 08:03:20;;;;;;;6.65;2.33;;;11.90;99.90;;;;;;5054643;28;20040;-77
2021/10/04 08:05:46;;;;;;;6.53;1.92;;;12.00;99.90;;;;;;5054087;28;20108;-76
2021/10/04 08:08:12;;;;;;;6.60;2.10;;;12.00;99.90;;;;;;5053858;28;20104;-75
2021/10/04 08:10:37;;;;;;;5.28;2.13;;;12.10;99.90;;;;;;5056841;28;20052;-75
2021/10/04 08:13:05;;;;;;;4.10;1.95;;;12.10;99.90;;;;;;5054116;28;20087;-74
2021/10/04 08:15:31;;;;;;;2.58;1.80;;;12.10;99.90;;;;;;5054066;28;20037;-77
2021/10/04 08:17:56;;;;;;;6.45;1.75;;;12.20;99.90;;;;;;5054107;28;20075;-75
2021/10/04 08:20:22;;;;;;;5.55;2.08;;;12.20;99.90;;;;;;5054273;28;20045;-75
2021/10/04 08:22:47;;;;;;;4.97;1.80;;;12.20;99.90;;;;;;5053580;28;20028;-75
2021/10/04 08:25:13;;;;;;;7.70;1.50;;;12.30;99.90;;;;;;5054178;28;20029;-76
2021/10/04 08:27:40;;;;;;;5.40;1.80;;;12.40;99.90;;;;;;5053831;28;20057;-76
2021/10/04 08:30:06;;;;;;;6.10;1.77;;;12.40;99.90;;;;;;5053318;28;20028;-75
2021/10/04 08:32:32;;;;;;;4.82;1.65;;;12.50;99.90;;;;;;5054266;28;20028;-77
2021/10/04 08:34:57;;;;;;;2.95;1.75;;;12.50;99.90;;;;;;5041328;28;20474;-76
2021/10/04 08:37:23;;;;;;;2.70;1.70;;;12.50;99.90;;;;;;5051949;28;20052;-77
2021/10/04 08:39:48;;;;;;;4.45;1.60;;;12.60;99.90;;;;;;5054919;28;20465;-77
2021/10/04 08:42:14;;;;;;;5.90;1.70;;;12.60;99.90;;;;;;5053455;28;20563;-76
2021/10/04 08:44:41;;;;;;;6.43;1.48;;;12.70;99.90;;;;;;5054043;28;20104;-75
2021/10/04 08:47:07;;;;;;;3.90;1.45;;;12.80;99.90;;;;;;5054005;28;20052;-75
2021/10/04 08:49:34;;;;;;;9.10;1.90;;;12.80;99.90;;;;;;5039549;28;20105;-77
2021/10/04 08:52:03;;;;;;;4.63;1.75;;;12.90;99.90;;;;;;5053686;28;20047;-77
2021/10/04 08:54:29;;;;;;;15.60;1.98;;;13.00;99.90;;;;;;5053474;28;20028;-77
2021/10/04 08:56:56;;;;;;;5.53;1.50;;;13.10;99.90;;;;;;5053226;28;20029;-76
2021/10/04 08:59:21;;;;;;;2.25;1.52;;;13.10;99.90;;;;;;5048651;28;20064;-76
2021/10/04 09:01:47;;;;;;;8.07;1.70;;;13.10;99.90;;;;;;5038617;28;20064;-77
2021/10/04 09:04:19;;;;;;;3.75;1.27;;;13.20;99.90;;;;;;5034586;28;20555;-76
2021/10/04 09:06:45;;;;;;;7.18;1.83;;;13.30;99.90;;;;;;5035880;28;20108;-76
2021/10/04 09:09:13;;;;;;;4.85;1.70;;;13.30;99.90;;;;;;5035786;28;20123;-76
2021/10/04 09:11:41;;;;;;;10.10;1.45;;;13.30;99.90;;;;;;5032919;28;20021;-76
2021/10/04 09:14:18;;;;;;;3.15;1.55;;;13.40;99.90;;;;;;5033340;28;20025;-76
2021/10/04 09:17:04;;;;;;;4.40;1.50;;;13.40;99.90;;;;;;5031903;28;20022;-76
2021/10/04 09:19:41;;;;;;;3.72;1.60;;;13.50;99.90;;;;;;5032934;28;20129;-76
2021/10/04 09:22:22;;;;;;;8.85;2.75;;;13.50;99.90;;;;;;5033260;28;20025;-76
2021/10/04 09:24:47;;;;;;;8.00;1.98;;;13.50;99.90;;;;;;5042445;28;20031;-76
2021/10/04 09:27:44;;;;;;;2.95;1.55;;;13.60;99.90;;;;;;5045584;28;20545;-77
2021/10/04 09:30:12;;;;;;;10.15;1.73;;;13.70;99.90;;;;;;5039198;28;20041;-75
2021/10/04 09:32:59;;;;;;;5.38;1.50;;;13.70;99.90;;;;;;5045381;28;20036;-76
2021/10/04 09:35:31;;;;;;;6.20;1.73;;;13.90;99.90;;;;;;5046849;28;20051;-77
2021/10/04 09:37:59;;;;;;;6.35;1.77;;;13.80;99.90;;;;;;5050441;28;20017;-76
2021/10/04 09:40:36;;;;;;;5.85;1.58;;;13.90;99.90;;;;;;5050158;28;20067;-76
2021/10/04 09:43:05;;;;;;;4.18;1.02;;;14.00;99.90;;;;;;5049587;28;20682;-76
2021/10/04 09:45:32;;;;;;;5.20;1.45;;;14.00;99.90;;;;;;5048143;28;20037;-76
2021/10/04 09:48:11;;;;;;;8.68;2.13;;;14.10;99.90;;;;;;5045463;28;20053;-76
2021/10/04 09:50:38;;;;;;;10.25;2.05;;;14.10;99.90;;;;;;5042407;28;20067;-76
2021/10/04 09:53:10;;;;;;;3.90;1.38;;;14.20;99.90;;;;;;5045344;28;20025;-76
2021/10/04 09:55:38;;;;;;;8.50;1.60;;;14.20;99.90;;;;;;5047175;28;20495;-76
2021/10/04 09:58:15;;;;;;;5.95;1.48;;;14.30;99.90;;;;;;5044658;28;20021;-76
2021/10/04 10:00:52;;;;;;;6.80;1.45;;;14.30;99.90;;;;;;5041276;28;20021;-77
2021/10/04 10:03:21;;;;;;;8.30;2.25;;;14.40;99.90;;;;;;5045503;28;20094;-75
2021/10/04 10:05:53;;;;;;;8.52;1.40;;;14.50;99.90;;;;;;5045975;28;20380;-75
2021/10/04 10:08:22;;;;;;;8.15;2.30;;;14.50;99.90;;;;;;5044069;28;20025;-75
2021/10/04 10:10:48;;;;;;;5.00;1.27;;;14.60;99.90;;;;;;5042582;28;20026;-77
2021/10/04 10:13:16;;;;;;;12.60;1.60;;;14.60;99.90;;;;;;5049226;28;20036;-77
2021/10/04 10:15:47;;;;;;;9.73;1.77;;;14.70;99.90;;;;;;5047819;28;20063;-76
2021/10/04 10:18:38;;;;;;;14.00;1.67;;;14.70;99.90;;;;;;5045213;28;20116;-75
2021/10/04 10:21:06;;;;;;;5.13;1.63;;;14.80;99.90;;;;;;5046219;28;20072;-77
2021/10/04 10:23:46;;;;;;;13.63;1.83;;;14.90;99.90;;;;;;5044724;28;20033;-76
2021/10/04 10:26:28;;;;;;;8.40;1.33;;;14.90;99.90;;;;;;5044137;28;20025;-77
2021/10/04 10:29:09;;;;;;;10.15;2.15;;;15.00;99.90;;;;;;5047399;28;20028;-77
2021/10/04 10:31:56;;;;;;;;;;;15.00;99.90;;;;;;5047906;28;20495;-76
2021/10/04 10:34:30;;;;;;;3.42;1.40;;;15.10;99.90;;;;;;5042119;28;19909;-77
2021/10/04 10:37:01;;;;;;;4.88;1.40;;;15.20;99.90;;;;;;5049580;28;20040;-78
2021/10/04 10:39:34;;;;;;;6.25;1.52;;;15.20;99.90;;;;;;5046176;28;20094;-78
2021/10/04 10:42:13;;;;;;;13.68;2.53;;;15.20;99.90;;;;;;5046254;28;20048;-77
2021/10/04 10:44:59;;;;;;;12.70;2.05;;;15.30;99.90;;;;;;5045043;28;20515;-77
2021/10/04 10:47:33;;;;;;;10.15;1.65;;;15.40;99.90;;;;;;5039080;28;20029;-77
2021/10/04 10:50:09;;;;;;;10.90;2.58;;;15.50;99.90;;;;;;5042538;28;20026;-77
2021/10/04 10:52:56;;;;;;;6.28;1.85;;;15.60;99.90;;;;;;5043067;28;20055;-76
2021/10/04 10:55:21;;;;;;;11.80;1.50;;;15.70;99.90;;;;;;5030361;28;20047;-76
2021/10/04 10:57:50;;;;;;;9.27;1.40;;;15.90;99.90;;;;;;5042592;28;20017;-76
2021/10/04 11:00:34;;;;;;;10.20;1.58;;;16.00;99.90;;;;;;5048930;28;20029;-76
2021/10/04 11:03:05;;;;;;;5.57;1.40;;;16.10;99.90;;;;;;5044900;28;20114;-76
2021/10/04 11:05:43;;;;;;;7.22;1.40;;;16.40;99.90;;;;;;5042519;28;20017;-76
2021/10/04 11:08:23;;;;;;;7.35;1.67;;;16.50;99.90;;;;;;5044426;28;20484;-77
2021/10/04 11:10:49;;;;;;;10.50;1.77;;;16.60;99.90;;;;;;5038099;28;20021;-76
2021/10/04 11:13:29;;;;;;;13.25;1.85;;;16.80;99.90;;;;;;5036834;28;20091;-76
2021/10/04 11:16:06;;;;;;;8.73;2.45;;;16.80;99.90;;;;;;5047978;28;20039;-77
2021/10/04 11:18:37;;;;;;;7.45;1.55;;;16.80;99.90;;;;;;5047953;28;20080;-77
2021/10/04 11:21:08;;;;;;;9.18;1.48;;;16.90;99.90;;;;;;5049216;28;20075;-77
2021/10/04 11:23:33;;;;;;;5.70;1.48;;;16.90;99.90;;;;;;5051502;28;20021;-76
2021/10/04 11:25:59;;;;;;;5.25;1.30;;;16.90;99.90;;;;;;5047057;28;20033;-76
2021/10/04 11:28:30;;;;;;;8.85;1.48;;;17.00;99.90;;;;;;5044870;28;20024;-76
2021/10/04 11:31:01;;;;;;;8.35;1.60;;;17.00;99.90;;;;;;5045303;28;20342;-75
2021/10/04 11:33:28;;;;;;;;;;;17.00;99.90;;;;;;5047954;28;20013;-78
2021/10/04 11:36:03;;;;;;;9.52;1.95;;;17.00;99.90;;;;;;5048117;28;19925;-78
2021/10/04 11:38:32;;;;;;;11.48;2.08;;;17.00;99.90;;;;;;5047705;28;20036;-77
2021/10/04 11:40:58;;;;;;;6.28;1.52;;;17.00;99.90;;;;;;5047382;28;20037;-77
2021/10/04 11:43:24;;;;;;;10.70;1.50;;;17.10;99.90;;;;;;5052134;28;20036;-77
2021/10/04 11:45:51;;;;;;;10.93;2.03;;;17.10;99.90;;;;;;5049807;28;20388;-77
2021/10/04 11:48:32;;;;;;;7.05;1.85;;;17.10;99.90;;;;;;5048540;28;20029;-78
2021/10/04 11:50:59;;;;;;;11.05;1.95;;;17.10;99.90;;;;;;5044504;28;20390;-77
2021/10/04 11:53:28;;;;;;;8.45;1.50;;;17.10;99.90;;;;;;5051871;28;20488;-76
2021/10/04 11:56:09;;;;;;;4.93;1.35;;;17.10;99.90;;;;;;5049769;28;20067;-77
2021/10/04 11:58:36;;;;;;;3.50;1.23;;;17.20;99.90;;;;;;5051419;28;20108;-77
2021/10/04 12:01:02;;;;;;;7.00;1.50;;;17.30;99.90;;;;;;5049291;28;20056;-77
2021/10/04 12:03:30;;;;;;;7.13;1.58;;;17.40;99.90;;;;;;5050412;28;20035;-77
2021/10/04 12:05:57;;;;;;;8.48;2.25;;;17.40;99.90;;;;;;5047887;28;20033;-76
2021/10/04 12:08:24;;;;;;;11.90;1.42;;;17.60;99.90;;;;;;5049966;28;20031;-77
2021/10/04 12:10:59;;;;;;;3.90;1.10;;;17.70;99.90;;;;;;5052003;28;20021;-77
2021/10/04 12:13:26;;;;;;;6.80;1.20;;;17.90;99.90;;;;;;5050598;28;20472;-76
2021/10/04 12:15:54;;;;;;;8.02;1.50;;;17.90;99.90;;;;;;5050301;28;20378;-78
2021/10/04 12:18:25;;;;;;;4.03;1.13;;;18.00;99.90;;;;;;5047356;28;20033;-77
2021/10/04 12:21:11;;;;;;;6.18;1.38;;;18.10;99.90;;;;;;5048543;28;20048;-78
2021/10/04 12:23:37;;;;;;;10.48;1.40;;;18.20;99.90;;;;;;5046625;28;20407;-77
2021/10/04 12:26:14;;;;;;;7.65;1.45;;;18.20;99.90;;;;;;5051702;28;20116;-78
2021/10/04 12:28:48;;;;;;;4.03;1.35;;;18.20;99.90;;;;;;5050795;28;20036;-78
2021/10/04 12:31:36;;;;;;;3.47;1.00;;;18.30;99.90;;;;;;5047389;28;20098;-78
2021/10/04 12:34:22;;;;;;;8.82;1.20;;;18.40;99.90;;;;;;5040197;28;20037;-76
2021/10/04 12:36:48;;;;;;;8.30;1.58;;;18.40;99.90;;;;;;5042227;28;20052;-76
2021/10/04 12:39:14;;;;;;;3.90;1.35;;;18.30;99.90;;;;;;5046300;28;20120;-76
2021/10/04 12:41:42;;;;;;;3.92;1.40;;;18.30;99.90;;;;;;5040640;28;20105;-76
2021/10/04 12:44:13;;;;;;;6.20;1.35;;;18.30;99.90;;;;;;5047501;28;20470;-75
2021/10/04 12:46:38;;;;;;;;;;;18.30;99.90;;;;;;5052035;28;20032;-76
2021/10/04 12:49:21;;;;;;;6.43;1.77;;;18.40;99.90;;;;;;5049203;28;19909;-74
2021/10/04 12:51:49;;;;;;;4.07;1.30;;;18.40;99.90;;;;;;5051919;28;20094;-76